Watts, OK (74964)

10:03 PM CST on January 25, 2015 (GMT -0600)
Smith | Change Station
CLOSE
Current Station
Airport
Location: Siloam Springs,
Elevation: 1191 ft
Nearby Weather Stations

Elev 1191 ft 36.19 °N, 94.49 °W | Updated 8 minutes ago

Mostly Cloudy
Mostly Cloudy
39 °F
Feels Like 32 °F
N
13
Wind Variable Wind from North
Gusts 18 mph

Today
High -- | Low -- °F
--% Chance of Precip.
Yesterday
High -- | Low -- °F
Precip. -- in
7:24 AM 5:37 PM
Waxing Crescent, 39% visible
Pressure 30.10 in
Visibility 10.0 miles
Clouds Scattered Clouds 2300 ft
Overcast 3100 ft
Windchill 32 °F
Dew Point 27 °F
Humidity 61%
Rainfall 0.02 in
Snow Depth Not available.
UV 0 out of 12
Pollen 5.40 out of 12
Air Quality Not available.
Flu Activity Not available.
METAR KSLG 260355Z AUTO 35011G16KT 10SM SCT023 OVC031 04/M03 A3010 RMK AO1

More Conditions Fewer Conditions

Pressure 30.10 in
Visibility 10.0 miles
Clouds Scattered Clouds 2300 ft
Overcast 3100 ft
Windchill 32 °F
Dew Point 27 °F
Humidity 61%
Rainfall 0.02 in
Snow Depth Not available.
UV 0 out of 12
Pollen 5.40 out of 12
Air Quality Not available.
Flu Activity Not available.
METAR KSLG 260355Z AUTO 35011G16KT 10SM SCT023 OVC031 04/M03 A3010 RMK AO1

More Conditions Fewer Conditions

10-Day Weather Forecast

Almanac

Astronomy

Jan. 25, 2015 Rise Set
Actual Time
Civil Twilight
Nautical Twilight
Astronomical Twilight
Moon
Length of Visible Light
Length of Day
Tomorrow will be .
, % of the Moon is Illuminated

Today's Extremes

State Highs State Lows

Community

WunderPhotos

Upload Photos

1,790,124 photos uploaded!

WunderBlogs® & News

Nearby

Air Quality

  Air Quality AQ Index Pollutant
Not available.

Snow Depth

Station Depth Elevation

Earthquake Activity

City Distance Mag. Time & Date
Minimum magnitude displayed is 2.5.

Coastal Water Temperatures

Place Temperature

Nearby Weather Stations